Terminal Aerodrome Forecast
Issued by NWS

Home | Current Version | Previous Version | Text Only | Print | Product List | Glossary On
Versions: 1 2 3 4 5 6 7 8 9 10 11 12 13 14 15
000
FTUS41 KCAR 212300 RRA
TAFHUL
TAF
KHUL 212349Z 2200/2224 18009KT P6SM BKN250
     FM220200 17007KT P6SM BKN015
     FM220400 14004KT 3SM BR OVC007
     FM220700 17005KT 2SM BR OVC003
     FM221000 19006KT 3SM -SHRA BR OVC006
     FM221200 21007KT P6SM OVC007
     FM221400 25010G20KT P6SM SCT007 BKN015
     FM221700 27010G20KT P6SM SCT020 BKN035=

USA.gov is the U.S. government's official web portal to all federal, state and local government web resources and services.